sensor_id;sensor_type;location;lat;lon;timestamp;P1;durP1;ratioP1;P2;durP2;ratioP2
43606;SDS011;29197;44.788;10.366;2022-08-30T00:00:02;3.03;;;2.38;;
43606;SDS011;29197;44.788;10.366;2022-08-30T00:03:11;2.75;;;2.20;;
43606;SDS011;29197;44.788;10.366;2022-08-30T00:06:02;3.13;;;2.33;;
43606;SDS011;29197;44.788;10.366;2022-08-30T00:08:52;2.50;;;2.13;;
43606;SDS011;29197;44.788;10.366;2022-08-30T00:11:43;3.67;;;2.40;;
43606;SDS011;29197;44.788;10.366;2022-08-30T00:14:32;3.45;;;2.40;;
43606;SDS011;29197;44.788;10.366;2022-08-30T00:17:22;3.10;;;2.22;;
43606;SDS011;29197;44.788;10.366;2022-08-30T00:20:12;3.97;;;2.40;;
43606;SDS011;29197;44.788;10.366;2022-08-30T00:23:03;2.38;;;2.17;;
43606;SDS011;29197;44.788;10.366;2022-08-30T00:25:53;2.53;;;2.17;;
43606;SDS011;29197;44.788;10.366;2022-08-30T00:28:43;3.00;;;2.58;;
43606;SDS011;29197;44.788;10.366;2022-08-30T00:31:32;4.75;;;2.58;;
43606;SDS011;29197;44.788;10.366;2022-08-30T00:34:23;4.50;;;2.50;;
43606;SDS011;29197;44.788;10.366;2022-08-30T00:37:12;3.95;;;2.38;;
43606;SDS011;29197;44.788;10.366;2022-08-30T00:40:02;2.80;;;2.22;;
43606;SDS011;29197;44.788;10.366;2022-08-30T00:42:53;3.42;;;2.10;;
43606;SDS011;29197;44.788;10.366;2022-08-30T00:45:45;3.42;;;2.35;;
43606;SDS011;29197;44.788;10.366;2022-08-30T00:48:35;4.25;;;2.33;;
43606;SDS011;29197;44.788;10.366;2022-08-30T00:51:29;2.67;;;2.20;;
43606;SDS011;29197;44.788;10.366;2022-08-30T00:54:19;2.20;;;2.00;;
43606;SDS011;29197;44.788;10.366;2022-08-30T00:57:12;2.72;;;2.20;;
43606;SDS011;29197;44.788;10.366;2022-08-30T01:00:03;2.70;;;2.28;;
43606;SDS011;29197;44.788;10.366;2022-08-30T01:02:54;3.20;;;2.53;;
43606;SDS011;29197;44.788;10.366;2022-08-30T01:05:43;2.75;;;2.30;;
43606;SDS011;29197;44.788;10.366;2022-08-30T01:08:35;3.55;;;2.80;;
43606;SDS011;29197;44.788;10.366;2022-08-30T01:11:25;5.05;;;2.58;;
43606;SDS011;29197;44.788;10.366;2022-08-30T01:14:14;2.83;;;2.55;;
43606;SDS011;29197;44.788;10.366;2022-08-30T01:17:12;3.65;;;2.60;;
43606;SDS011;29197;44.788;10.366;2022-08-30T01:20:07;3.15;;;2.30;;
43606;SDS011;29197;44.788;10.366;2022-08-30T01:23:03;2.28;;;2.08;;
43606;SDS011;29197;44.788;10.366;2022-08-30T01:25:54;3.38;;;2.50;;
43606;SDS011;29197;44.788;10.366;2022-08-30T01:28:44;2.40;;;2.20;;
43606;SDS011;29197;44.788;10.366;2022-08-30T01:31:35;4.15;;;2.88;;
43606;SDS011;29197;44.788;10.366;2022-08-30T01:34:24;4.53;;;2.75;;
43606;SDS011;29197;44.788;10.366;2022-08-30T01:37:13;4.28;;;2.80;;
43606;SDS011;29197;44.788;10.366;2022-08-30T01:40:06;2.70;;;2.50;;
43606;SDS011;29197;44.788;10.366;2022-08-30T01:42:56;5.03;;;2.97;;
43606;SDS011;29197;44.788;10.366;2022-08-30T01:45:45;2.67;;;2.47;;
43606;SDS011;29197;44.788;10.366;2022-08-30T01:48:35;3.10;;;2.50;;
43606;SDS011;29197;44.788;10.366;2022-08-30T01:51:25;2.83;;;2.10;;
43606;SDS011;29197;44.788;10.366;2022-08-30T01:54:14;2.83;;;2.15;;
43606;SDS011;29197;44.788;10.366;2022-08-30T01:57:05;2.40;;;2.08;;
43606;SDS011;29197;44.788;10.366;2022-08-30T01:59:56;3.47;;;2.38;;
43606;SDS011;29197;44.788;10.366;2022-08-30T02:02:45;2.50;;;2.25;;
43606;SDS011;29197;44.788;10.366;2022-08-30T02:05:34;3.55;;;2.60;;
43606;SDS011;29197;44.788;10.366;2022-08-30T02:08:33;3.05;;;2.50;;
43606;SDS011;29197;44.788;10.366;2022-08-30T02:11:39;2.83;;;2.60;;
43606;SDS011;29197;44.788;10.366;2022-08-30T02:14:30;3.97;;;2.40;;
43606;SDS011;29197;44.788;10.366;2022-08-30T02:17:19;3.97;;;2.85;;
43606;SDS011;29197;44.788;10.366;2022-08-30T02:20:09;3.78;;;2.10;;
43606;SDS011;29197;44.788;10.366;2022-08-30T02:22:58;2.72;;;2.15;;
43606;SDS011;29197;44.788;10.366;2022-08-30T02:25:47;4.15;;;2.28;;
43606;SDS011;29197;44.788;10.366;2022-08-30T02:28:37;3.65;;;2.30;;
43606;SDS011;29197;44.788;10.366;2022-08-30T02:31:37;3.17;;;2.60;;
43606;SDS011;29197;44.788;10.366;2022-08-30T02:34:26;4.00;;;3.00;;
43606;SDS011;29197;44.788;10.366;2022-08-30T02:37:16;3.17;;;2.83;;
43606;SDS011;29197;44.788;10.366;2022-08-30T02:40:06;3.42;;;2.60;;
43606;SDS011;29197;44.788;10.366;2022-08-30T02:42:57;5.75;;;2.85;;
43606;SDS011;29197;44.788;10.366;2022-08-30T02:45:47;3.22;;;2.35;;
43606;SDS011;29197;44.788;10.366;2022-08-30T02:48:38;2.55;;;2.35;;
43606;SDS011;29197;44.788;10.366;2022-08-30T02:51:27;3.50;;;2.67;;
43606;SDS011;29197;44.788;10.366;2022-08-30T02:54:16;2.80;;;2.50;;
43606;SDS011;29197;44.788;10.366;2022-08-30T02:57:06;2.58;;;2.30;;
43606;SDS011;29197;44.788;10.366;2022-08-30T03:00:06;5.20;;;2.30;;
43606;SDS011;29197;44.788;10.366;2022-08-30T03:02:58;3.58;;;2.50;;
43606;SDS011;29197;44.788;10.366;2022-08-30T03:05:51;2.85;;;2.63;;
43606;SDS011;29197;44.788;10.366;2022-08-30T03:08:40;3.13;;;2.13;;
43606;SDS011;29197;44.788;10.366;2022-08-30T03:11:29;3.70;;;2.35;;
43606;SDS011;29197;44.788;10.366;2022-08-30T03:14:18;2.40;;;2.20;;
43606;SDS011;29197;44.788;10.366;2022-08-30T03:17:08;2.90;;;2.40;;
43606;SDS011;29197;44.788;10.366;2022-08-30T03:20:02;2.95;;;2.53;;
43606;SDS011;29197;44.788;10.366;2022-08-30T03:22:54;3.58;;;2.30;;
43606;SDS011;29197;44.788;10.366;2022-08-30T03:25:43;2.88;;;2.50;;
43606;SDS011;29197;44.788;10.366;2022-08-30T03:28:32;2.53;;;2.15;;
43606;SDS011;29197;44.788;10.366;2022-08-30T03:31:22;2.20;;;1.90;;
43606;SDS011;29197;44.788;10.366;2022-08-30T03:34:11;4.38;;;2.25;;
43606;SDS011;29197;44.788;10.366;2022-08-30T03:37:02;3.15;;;2.63;;
43606;SDS011;29197;44.788;10.366;2022-08-30T03:39:53;2.65;;;2.22;;
43606;SDS011;29197;44.788;10.366;2022-08-30T03:42:42;2.95;;;2.45;;
43606;SDS011;29197;44.788;10.366;2022-08-30T03:45:31;2.53;;;2.08;;
43606;SDS011;29197;44.788;10.366;2022-08-30T03:48:21;3.45;;;2.63;;
43606;SDS011;29197;44.788;10.366;2022-08-30T03:51:12;2.75;;;2.47;;
43606;SDS011;29197;44.788;10.366;2022-08-30T03:54:01;2.95;;;2.03;;
43606;SDS011;29197;44.788;10.366;2022-08-30T03:56:52;3.55;;;2.30;;
43606;SDS011;29197;44.788;10.366;2022-08-30T03:59:42;3.58;;;2.60;;
43606;SDS011;29197;44.788;10.366;2022-08-30T04:02:31;2.15;;;2.03;;
43606;SDS011;29197;44.788;10.366;2022-08-30T04:05:20;3.17;;;2.67;;
43606;SDS011;29197;44.788;10.366;2022-08-30T04:08:09;3.72;;;3.03;;
43606;SDS011;29197;44.788;10.366;2022-08-30T04:10:58;3.65;;;3.22;;
43606;SDS011;29197;44.788;10.366;2022-08-30T04:13:52;5.20;;;4.13;;
43606;SDS011;29197;44.788;10.366;2022-08-30T04:16:42;5.15;;;3.67;;
43606;SDS011;29197;44.788;10.366;2022-08-30T04:19:32;3.53;;;3.22;;
43606;SDS011;29197;44.788;10.366;2022-08-30T04:22:21;3.40;;;3.10;;
43606;SDS011;29197;44.788;10.366;2022-08-30T04:25:10;4.03;;;3.53;;
43606;SDS011;29197;44.788;10.366;2022-08-30T04:28:02;3.42;;;3.00;;
43606;SDS011;29197;44.788;10.366;2022-08-30T04:30:53;3.78;;;3.42;;
43606;SDS011;29197;44.788;10.366;2022-08-30T04:33:43;3.50;;;3.17;;
43606;SDS011;29197;44.788;10.366;2022-08-30T04:36:32;4.97;;;3.03;;
43606;SDS011;29197;44.788;10.366;2022-08-30T04:39:21;4.90;;;3.80;;
43606;SDS011;29197;44.788;10.366;2022-08-30T04:42:11;3.80;;;3.42;;
43606;SDS011;29197;44.788;10.366;2022-08-30T04:45:02;3.80;;;3.40;;
43606;SDS011;29197;44.788;10.366;2022-08-30T04:47:56;6.50;;;5.07;;
43606;SDS011;29197;44.788;10.366;2022-08-30T04:50:45;8.27;;;4.10;;
43606;SDS011;29197;44.788;10.366;2022-08-30T04:53:34;3.80;;;3.40;;
43606;SDS011;29197;44.788;10.366;2022-08-30T04:56:24;3.78;;;3.22;;
43606;SDS011;29197;44.788;10.366;2022-08-30T04:59:12;5.53;;;4.22;;
43606;SDS011;29197;44.788;10.366;2022-08-30T05:02:01;4.55;;;3.70;;
43606;SDS011;29197;44.788;10.366;2022-08-30T05:04:51;6.28;;;4.07;;
43606;SDS011;29197;44.788;10.366;2022-08-30T05:08:00;4.75;;;4.25;;
43606;SDS011;29197;44.788;10.366;2022-08-30T05:10:50;5.90;;;3.88;;
43606;SDS011;29197;44.788;10.366;2022-08-30T05:13:40;4.88;;;3.78;;
43606;SDS011;29197;44.788;10.366;2022-08-30T05:16:29;6.15;;;3.80;;
43606;SDS011;29197;44.788;10.366;2022-08-30T05:19:19;6.85;;;3.97;;
43606;SDS011;29197;44.788;10.366;2022-08-30T05:22:10;7.82;;;4.50;;
43606;SDS011;29197;44.788;10.366;2022-08-30T05:25:01;5.28;;;3.80;;
43606;SDS011;29197;44.788;10.366;2022-08-30T05:27:50;6.28;;;3.25;;
43606;SDS011;29197;44.788;10.366;2022-08-30T05:30:39;4.25;;;3.17;;
43606;SDS011;29197;44.788;10.366;2022-08-30T05:33:28;4.40;;;3.78;;
43606;SDS011;29197;44.788;10.366;2022-08-30T05:36:25;8.38;;;4.32;;
43606;SDS011;29197;44.788;10.366;2022-08-30T05:39:18;9.20;;;4.25;;
43606;SDS011;29197;44.788;10.366;2022-08-30T05:42:07;6.95;;;4.10;;
43606;SDS011;29197;44.788;10.366;2022-08-30T05:45:03;6.45;;;3.80;;
43606;SDS011;29197;44.788;10.366;2022-08-30T05:47:52;9.10;;;4.43;;
43606;SDS011;29197;44.788;10.366;2022-08-30T05:50:42;4.93;;;4.45;;
43606;SDS011;29197;44.788;10.366;2022-08-30T05:53:31;5.18;;;4.47;;
43606;SDS011;29197;44.788;10.366;2022-08-30T05:56:23;6.30;;;4.25;;
43606;SDS011;29197;44.788;10.366;2022-08-30T05:59:14;5.63;;;4.50;;
43606;SDS011;29197;44.788;10.366;2022-08-30T06:02:03;4.80;;;4.40;;
43606;SDS011;29197;44.788;10.366;2022-08-30T06:04:53;6.13;;;4.35;;
43606;SDS011;29197;44.788;10.366;2022-08-30T06:07:43;4.32;;;3.60;;
43606;SDS011;29197;44.788;10.366;2022-08-30T06:10:32;4.90;;;3.45;;
43606;SDS011;29197;44.788;10.366;2022-08-30T06:13:23;4.90;;;3.53;;
43606;SDS011;29197;44.788;10.366;2022-08-30T06:16:12;4.53;;;3.75;;
43606;SDS011;29197;44.788;10.366;2022-08-30T06:19:03;3.88;;;3.47;;
43606;SDS011;29197;44.788;10.366;2022-08-30T06:21:54;4.38;;;3.95;;
43606;SDS011;29197;44.788;10.366;2022-08-30T06:24:42;6.78;;;3.63;;
43606;SDS011;29197;44.788;10.366;2022-08-30T06:27:46;5.07;;;3.28;;
43606;SDS011;29197;44.788;10.366;2022-08-30T06:30:43;6.25;;;3.80;;
43606;SDS011;29197;44.788;10.366;2022-08-30T06:33:33;5.53;;;3.20;;
43606;SDS011;29197;44.788;10.366;2022-08-30T06:36:23;3.53;;;2.95;;
43606;SDS011;29197;44.788;10.366;2022-08-30T06:39:13;3.03;;;2.65;;
43606;SDS011;29197;44.788;10.366;2022-08-30T06:42:02;4.78;;;2.60;;
43606;SDS011;29197;44.788;10.366;2022-08-30T06:44:54;3.53;;;2.30;;
43606;SDS011;29197;44.788;10.366;2022-08-30T06:47:44;2.85;;;2.25;;
43606;SDS011;29197;44.788;10.366;2022-08-30T06:50:34;2.83;;;2.42;;
43606;SDS011;29197;44.788;10.366;2022-08-30T06:53:23;4.53;;;2.67;;
43606;SDS011;29197;44.788;10.366;2022-08-30T06:56:12;4.43;;;2.20;;
43606;SDS011;29197;44.788;10.366;2022-08-30T06:59:02;2.67;;;2.47;;
43606;SDS011;29197;44.788;10.366;2022-08-30T07:01:52;2.63;;;2.42;;
43606;SDS011;29197;44.788;10.366;2022-08-30T07:04:43;3.80;;;2.80;;
43606;SDS011;29197;44.788;10.366;2022-08-30T07:07:32;3.08;;;2.65;;
43606;SDS011;29197;44.788;10.366;2022-08-30T07:10:22;2.35;;;2.10;;
43606;SDS011;29197;44.788;10.366;2022-08-30T07:13:11;2.58;;;2.10;;
43606;SDS011;29197;44.788;10.366;2022-08-30T07:16:07;3.03;;;1.98;;
43606;SDS011;29197;44.788;10.366;2022-08-30T07:18:57;4.22;;;2.35;;
43606;SDS011;29197;44.788;10.366;2022-08-30T07:21:50;2.85;;;2.05;;
43606;SDS011;29197;44.788;10.366;2022-08-30T07:24:39;3.63;;;1.88;;
43606;SDS011;29197;44.788;10.366;2022-08-30T07:27:29;3.67;;;1.70;;
43606;SDS011;29197;44.788;10.366;2022-08-30T07:30:18;4.13;;;2.22;;
43606;SDS011;29197;44.788;10.366;2022-08-30T07:33:07;2.50;;;2.10;;
43606;SDS011;29197;44.788;10.366;2022-08-30T07:35:57;2.30;;;2.10;;
43606;SDS011;29197;44.788;10.366;2022-08-30T07:38:49;2.72;;;2.53;;
43606;SDS011;29197;44.788;10.366;2022-08-30T07:41:40;2.95;;;2.65;;
43606;SDS011;29197;44.788;10.366;2022-08-30T07:44:30;2.88;;;2.67;;
43606;SDS011;29197;44.788;10.366;2022-08-30T07:47:19;5.05;;;2.78;;
43606;SDS011;29197;44.788;10.366;2022-08-30T07:50:08;4.70;;;2.70;;
43606;SDS011;29197;44.788;10.366;2022-08-30T07:52:57;2.58;;;2.05;;
43606;SDS011;29197;44.788;10.366;2022-08-30T07:55:48;3.67;;;2.33;;
43606;SDS011;29197;44.788;10.366;2022-08-30T07:58:37;2.92;;;2.35;;
43606;SDS011;29197;44.788;10.366;2022-08-30T08:01:27;2.92;;;2.50;;
43606;SDS011;29197;44.788;10.366;2022-08-30T08:04:16;5.07;;;2.28;;
43606;SDS011;29197;44.788;10.366;2022-08-30T08:07:06;2.97;;;2.45;;
43606;SDS011;29197;44.788;10.366;2022-08-30T08:09:55;3.03;;;2.40;;
43606;SDS011;29197;44.788;10.366;2022-08-30T08:12:46;3.95;;;2.95;;
43606;SDS011;29197;44.788;10.366;2022-08-30T08:15:37;7.68;;;2.70;;
43606;SDS011;29197;44.788;10.366;2022-08-30T08:18:28;4.50;;;3.00;;
43606;SDS011;29197;44.788;10.366;2022-08-30T08:21:17;2.97;;;2.75;;
43606;SDS011;29197;44.788;10.366;2022-08-30T08:24:06;3.33;;;2.63;;
43606;SDS011;29197;44.788;10.366;2022-08-30T08:26:55;4.45;;;3.05;;
43606;SDS011;29197;44.788;10.366;2022-08-30T08:29:46;3.67;;;3.20;;
43606;SDS011;29197;44.788;10.366;2022-08-30T08:32:35;4.85;;;2.33;;
43606;SDS011;29197;44.788;10.366;2022-08-30T08:35:27;4.95;;;3.40;;
43606;SDS011;29197;44.788;10.366;2022-08-30T08:38:17;3.55;;;3.00;;
43606;SDS011;29197;44.788;10.366;2022-08-30T08:41:07;4.90;;;3.30;;
43606;SDS011;29197;44.788;10.366;2022-08-30T08:44:02;5.10;;;2.85;;
43606;SDS011;29197;44.788;10.366;2022-08-30T08:46:55;3.88;;;2.75;;
43606;SDS011;29197;44.788;10.366;2022-08-30T08:49:56;3.45;;;2.55;;
43606;SDS011;29197;44.788;10.366;2022-08-30T08:52:48;4.63;;;3.22;;
43606;SDS011;29197;44.788;10.366;2022-08-30T08:56:11;6.03;;;3.70;;
43606;SDS011;29197;44.788;10.366;2022-08-30T08:59:03;4.35;;;2.80;;
43606;SDS011;29197;44.788;10.366;2022-08-30T09:01:58;6.13;;;3.80;;
43606;SDS011;29197;44.788;10.366;2022-08-30T09:04:48;4.25;;;3.85;;
43606;SDS011;29197;44.788;10.366;2022-08-30T09:07:42;8.27;;;4.80;;
43606;SDS011;29197;44.788;10.366;2022-08-30T09:10:36;5.43;;;4.40;;
43606;SDS011;29197;44.788;10.366;2022-08-30T09:13:36;6.10;;;5.55;;
43606;SDS011;29197;44.788;10.366;2022-08-30T09:16:49;8.38;;;6.00;;
43606;SDS011;29197;44.788;10.366;2022-08-30T09:19:58;9.02;;;6.30;;
43606;SDS011;29197;44.788;10.366;2022-08-30T09:22:48;6.72;;;5.78;;
43606;SDS011;29197;44.788;10.366;2022-08-30T09:25:48;6.00;;;3.72;;
43606;SDS011;29197;44.788;10.366;2022-08-30T09:28:43;5.18;;;3.92;;
43606;SDS011;29197;44.788;10.366;2022-08-30T09:31:44;5.45;;;4.00;;
43606;SDS011;29197;44.788;10.366;2022-08-30T09:34:46;6.82;;;4.85;;
43606;SDS011;29197;44.788;10.366;2022-08-30T09:37:38;3.35;;;2.90;;
43606;SDS011;29197;44.788;10.366;2022-08-30T09:40:33;3.20;;;2.90;;
43606;SDS011;29197;44.788;10.366;2022-08-30T09:43:26;5.40;;;2.88;;
43606;SDS011;29197;44.788;10.366;2022-08-30T09:46:17;3.33;;;2.33;;
43606;SDS011;29197;44.788;10.366;2022-08-30T09:49:32;3.90;;;3.20;;
43606;SDS011;29197;44.788;10.366;2022-08-30T09:52:31;6.55;;;2.92;;
43606;SDS011;29197;44.788;10.366;2022-08-30T09:55:34;6.05;;;2.78;;
43606;SDS011;29197;44.788;10.366;2022-08-30T09:58:41;4.38;;;2.50;;
43606;SDS011;29197;44.788;10.366;2022-08-30T10:01:43;2.63;;;2.30;;
43606;SDS011;29197;44.788;10.366;2022-08-30T10:04:39;4.28;;;2.88;;
43606;SDS011;29197;44.788;10.366;2022-08-30T10:07:39;3.00;;;2.70;;
43606;SDS011;29197;44.788;10.366;2022-08-30T10:10:42;3.75;;;2.78;;
43606;SDS011;29197;44.788;10.366;2022-08-30T10:17:15;3.55;;;3.25;;
43606;SDS011;29197;44.788;10.366;2022-08-30T10:20:15;5.55;;;2.80;;
43606;SDS011;29197;44.788;10.366;2022-08-30T10:23:11;5.90;;;3.38;;
43606;SDS011;29197;44.788;10.366;2022-08-30T10:26:08;4.57;;;3.42;;
43606;SDS011;29197;44.788;10.366;2022-08-30T10:29:05;4.00;;;2.58;;
43606;SDS011;29197;44.788;10.366;2022-08-30T10:32:00;4.43;;;4.03;;
43606;SDS011;29197;44.788;10.366;2022-08-30T10:34:53;4.28;;;3.22;;
43606;SDS011;29197;44.788;10.366;2022-08-30T10:37:49;4.60;;;3.17;;
43606;SDS011;29197;44.788;10.366;2022-08-30T10:40:41;4.35;;;3.50;;
43606;SDS011;29197;44.788;10.366;2022-08-30T10:43:55;4.68;;;3.60;;
43606;SDS011;29197;44.788;10.366;2022-08-30T10:46:52;3.75;;;3.38;;
43606;SDS011;29197;44.788;10.366;2022-08-30T10:49:54;3.40;;;2.90;;
43606;SDS011;29197;44.788;10.366;2022-08-30T10:53:09;4.20;;;2.83;;
43606;SDS011;29197;44.788;10.366;2022-08-30T10:56:02;4.28;;;3.55;;
43606;SDS011;29197;44.788;10.366;2022-08-30T10:59:00;3.20;;;2.72;;
43606;SDS011;29197;44.788;10.366;2022-08-30T11:02:02;3.85;;;3.33;;
43606;SDS011;29197;44.788;10.366;2022-08-30T11:05:06;4.47;;;4.07;;
43606;SDS011;29197;44.788;10.366;2022-08-30T11:08:16;3.15;;;2.90;;
43606;SDS011;29197;44.788;10.366;2022-08-30T11:11:19;4.55;;;3.72;;
43606;SDS011;29197;44.788;10.366;2022-08-30T11:14:19;3.13;;;2.67;;
43606;SDS011;29197;44.788;10.366;2022-08-30T11:17:21;3.15;;;2.60;;
43606;SDS011;29197;44.788;10.366;2022-08-30T11:20:21;4.82;;;2.85;;
43606;SDS011;29197;44.788;10.366;2022-08-30T11:23:24;3.55;;;2.97;;
43606;SDS011;29197;44.788;10.366;2022-08-30T11:29:40;5.25;;;2.90;;
43606;SDS011;29197;44.788;10.366;2022-08-30T11:35:48;2.90;;;2.63;;
43606;SDS011;29197;44.788;10.366;2022-08-30T11:41:49;7.78;;;3.28;;
43606;SDS011;29197;44.788;10.366;2022-08-30T11:48:41;3.28;;;2.97;;
43606;SDS011;29197;44.788;10.366;2022-08-30T11:51:46;4.00;;;3.47;;
43606;SDS011;29197;44.788;10.366;2022-08-30T11:55:24;2.83;;;2.47;;
43606;SDS011;29197;44.788;10.366;2022-08-30T11:58:30;3.65;;;3.00;;
43606;SDS011;29197;44.788;10.366;2022-08-30T12:01:32;8.23;;;3.10;;
43606;SDS011;29197;44.788;10.366;2022-08-30T12:04:43;2.63;;;2.40;;
43606;SDS011;29197;44.788;10.366;2022-08-30T12:10:44;5.68;;;2.80;;
43606;SDS011;29197;44.788;10.366;2022-08-30T12:16:43;5.88;;;4.70;;
43606;SDS011;29197;44.788;10.366;2022-08-30T12:19:49;3.03;;;2.72;;
43606;SDS011;29197;44.788;10.366;2022-08-30T12:22:38;5.97;;;5.15;;
43606;SDS011;29197;44.788;10.366;2022-08-30T12:25:28;4.60;;;3.72;;
43606;SDS011;29197;44.788;10.366;2022-08-30T12:28:21;3.33;;;3.03;;
43606;SDS011;29197;44.788;10.366;2022-08-30T12:31:13;6.60;;;3.30;;
43606;SDS011;29197;44.788;10.366;2022-08-30T12:34:02;3.45;;;2.97;;
43606;SDS011;29197;44.788;10.366;2022-08-30T12:36:54;3.85;;;3.10;;
43606;SDS011;29197;44.788;10.366;2022-08-30T12:39:46;3.45;;;2.75;;
43606;SDS011;29197;44.788;10.366;2022-08-30T12:42:41;4.80;;;4.30;;
43606;SDS011;29197;44.788;10.366;2022-08-30T12:45:37;4.15;;;3.00;;
43606;SDS011;29197;44.788;10.366;2022-08-30T12:48:36;3.17;;;2.88;;
43606;SDS011;29197;44.788;10.366;2022-08-30T12:51:32;2.80;;;2.55;;
43606;SDS011;29197;44.788;10.366;2022-08-30T12:54:28;3.42;;;3.05;;
43606;SDS011;29197;44.788;10.366;2022-08-30T12:57:34;4.13;;;3.17;;
43606;SDS011;29197;44.788;10.366;2022-08-30T13:00:25;4.68;;;3.60;;
43606;SDS011;29197;44.788;10.366;2022-08-30T13:03:26;4.28;;;3.58;;
43606;SDS011;29197;44.788;10.366;2022-08-30T13:06:33;4.05;;;3.65;;
43606;SDS011;29197;44.788;10.366;2022-08-30T13:09:26;7.72;;;3.83;;
43606;SDS011;29197;44.788;10.366;2022-08-30T13:12:20;5.50;;;4.32;;
43606;SDS011;29197;44.788;10.366;2022-08-30T13:15:15;4.75;;;3.45;;
43606;SDS011;29197;44.788;10.366;2022-08-30T13:18:09;3.97;;;3.53;;
43606;SDS011;29197;44.788;10.366;2022-08-30T13:21:23;4.75;;;3.63;;
43606;SDS011;29197;44.788;10.366;2022-08-30T13:24:14;6.20;;;4.20;;
43606;SDS011;29197;44.788;10.366;2022-08-30T13:27:08;4.78;;;3.78;;
43606;SDS011;29197;44.788;10.366;2022-08-30T13:30:00;4.25;;;3.65;;
43606;SDS011;29197;44.788;10.366;2022-08-30T13:32:59;5.80;;;4.53;;
43606;SDS011;29197;44.788;10.366;2022-08-30T13:35:51;3.85;;;3.55;;
43606;SDS011;29197;44.788;10.366;2022-08-30T13:38:41;4.32;;;3.53;;
43606;SDS011;29197;44.788;10.366;2022-08-30T13:41:30;6.07;;;3.50;;
43606;SDS011;29197;44.788;10.366;2022-08-30T13:44:22;4.22;;;3.47;;
43606;SDS011;29197;44.788;10.366;2022-08-30T13:47:12;5.82;;;3.75;;
43606;SDS011;29197;44.788;10.366;2022-08-30T13:50:21;6.40;;;4.22;;
43606;SDS011;29197;44.788;10.366;2022-08-30T13:53:11;6.78;;;4.18;;
43606;SDS011;29197;44.788;10.366;2022-08-30T13:56:00;5.93;;;4.45;;
43606;SDS011;29197;44.788;10.366;2022-08-30T13:58:50;5.88;;;4.32;;
43606;SDS011;29197;44.788;10.366;2022-08-30T14:01:40;8.02;;;5.28;;
43606;SDS011;29197;44.788;10.366;2022-08-30T14:04:50;6.38;;;5.78;;
43606;SDS011;29197;44.788;10.366;2022-08-30T14:07:39;7.70;;;6.20;;
43606;SDS011;29197;44.788;10.366;2022-08-30T14:10:31;10.43;;;7.07;;
43606;SDS011;29197;44.788;10.366;2022-08-30T14:13:32;14.82;;;10.38;;
43606;SDS011;29197;44.788;10.366;2022-08-30T14:16:23;14.35;;;9.73;;
43606;SDS011;29197;44.788;10.366;2022-08-30T14:19:15;12.82;;;9.55;;
43606;SDS011;29197;44.788;10.366;2022-08-30T14:22:05;9.68;;;8.52;;
43606;SDS011;29197;44.788;10.366;2022-08-30T14:24:55;10.60;;;7.43;;
43606;SDS011;29197;44.788;10.366;2022-08-30T14:27:47;7.85;;;7.00;;
43606;SDS011;29197;44.788;10.366;2022-08-30T14:30:36;11.02;;;6.68;;
43606;SDS011;29197;44.788;10.366;2022-08-30T14:33:28;9.73;;;7.70;;
43606;SDS011;29197;44.788;10.366;2022-08-30T14:36:19;10.07;;;6.40;;
43606;SDS011;29197;44.788;10.366;2022-08-30T14:39:08;7.32;;;5.80;;
43606;SDS011;29197;44.788;10.366;2022-08-30T14:42:00;6.22;;;5.63;;
43606;SDS011;29197;44.788;10.366;2022-08-30T14:44:53;11.60;;;5.15;;
43606;SDS011;29197;44.788;10.366;2022-08-30T14:47:42;7.93;;;5.07;;
43606;SDS011;29197;44.788;10.366;2022-08-30T14:50:33;10.00;;;5.32;;
43606;SDS011;29197;44.788;10.366;2022-08-30T14:53:24;5.97;;;4.35;;
43606;SDS011;29197;44.788;10.366;2022-08-30T14:56:14;6.43;;;5.72;;
43606;SDS011;29197;44.788;10.366;2022-08-30T14:59:05;9.18;;;4.50;;
43606;SDS011;29197;44.788;10.366;2022-08-30T15:01:59;7.35;;;4.90;;
43606;SDS011;29197;44.788;10.366;2022-08-30T15:04:48;9.98;;;6.18;;
43606;SDS011;29197;44.788;10.366;2022-08-30T15:07:37;9.60;;;5.68;;
43606;SDS011;29197;44.788;10.366;2022-08-30T15:10:28;7.55;;;5.47;;
43606;SDS011;29197;44.788;10.366;2022-08-30T15:13:17;7.55;;;5.18;;
43606;SDS011;29197;44.788;10.366;2022-08-30T15:16:09;7.90;;;4.68;;
43606;SDS011;29197;44.788;10.366;2022-08-30T15:19:00;6.75;;;5.05;;
43606;SDS011;29197;44.788;10.366;2022-08-30T15:21:49;10.95;;;5.47;;
43606;SDS011;29197;44.788;10.366;2022-08-30T15:24:39;7.65;;;5.38;;
43606;SDS011;29197;44.788;10.366;2022-08-30T15:27:36;9.02;;;4.65;;
43606;SDS011;29197;44.788;10.366;2022-08-30T15:30:25;9.23;;;4.13;;
43606;SDS011;29197;44.788;10.366;2022-08-30T15:33:14;6.82;;;4.70;;
43606;SDS011;29197;44.788;10.366;2022-08-30T15:36:04;7.13;;;4.30;;
43606;SDS011;29197;44.788;10.366;2022-08-30T15:38:54;6.40;;;4.82;;
43606;SDS011;29197;44.788;10.366;2022-08-30T15:41:45;7.75;;;4.57;;
43606;SDS011;29197;44.788;10.366;2022-08-30T15:44:44;7.47;;;4.88;;
43606;SDS011;29197;44.788;10.366;2022-08-30T15:47:34;4.90;;;3.67;;
43606;SDS011;29197;44.788;10.366;2022-08-30T15:50:23;4.93;;;3.15;;
43606;SDS011;29197;44.788;10.366;2022-08-30T15:53:13;4.28;;;3.35;;
43606;SDS011;29197;44.788;10.366;2022-08-30T15:56:03;5.00;;;3.05;;
43606;SDS011;29197;44.788;10.366;2022-08-30T15:58:53;4.85;;;2.92;;
43606;SDS011;29197;44.788;10.366;2022-08-30T16:01:44;5.32;;;2.80;;
43606;SDS011;29197;44.788;10.366;2022-08-30T16:04:33;4.70;;;2.97;;
43606;SDS011;29197;44.788;10.366;2022-08-30T16:07:26;4.30;;;2.50;;
43606;SDS011;29197;44.788;10.366;2022-08-30T16:10:16;3.13;;;2.13;;
43606;SDS011;29197;44.788;10.366;2022-08-30T16:13:05;4.72;;;2.53;;
43606;SDS011;29197;44.788;10.366;2022-08-30T16:15:54;2.85;;;2.20;;
43606;SDS011;29197;44.788;10.366;2022-08-30T16:18:49;3.38;;;2.17;;
43606;SDS011;29197;44.788;10.366;2022-08-30T16:21:41;3.67;;;2.28;;
43606;SDS011;29197;44.788;10.366;2022-08-30T16:24:30;4.60;;;2.33;;
43606;SDS011;29197;44.788;10.366;2022-08-30T16:27:19;3.97;;;1.92;;
43606;SDS011;29197;44.788;10.366;2022-08-30T16:30:11;3.42;;;1.90;;
43606;SDS011;29197;44.788;10.366;2022-08-30T16:33:01;2.47;;;2.10;;
43606;SDS011;29197;44.788;10.366;2022-08-30T16:35:53;2.85;;;2.47;;
43606;SDS011;29197;44.788;10.366;2022-08-30T16:38:43;3.05;;;2.50;;
43606;SDS011;29197;44.788;10.366;2022-08-30T16:41:32;4.82;;;2.90;;
43606;SDS011;29197;44.788;10.366;2022-08-30T16:44:23;5.00;;;4.00;;
43606;SDS011;29197;44.788;10.366;2022-08-30T16:47:15;6.32;;;4.57;;
43606;SDS011;29197;44.788;10.366;2022-08-30T16:50:04;6.13;;;3.30;;
43606;SDS011;29197;44.788;10.366;2022-08-30T16:52:55;5.30;;;3.72;;
43606;SDS011;29197;44.788;10.366;2022-08-30T16:55:44;4.97;;;4.03;;
43606;SDS011;29197;44.788;10.366;2022-08-30T16:58:33;5.03;;;3.33;;
43606;SDS011;29197;44.788;10.366;2022-08-30T17:01:22;6.88;;;4.07;;
43606;SDS011;29197;44.788;10.366;2022-08-30T17:04:11;3.88;;;2.90;;
43606;SDS011;29197;44.788;10.366;2022-08-30T17:07:05;3.65;;;3.35;;
43606;SDS011;29197;44.788;10.366;2022-08-30T17:10:00;6.32;;;3.83;;
43606;SDS011;29197;44.788;10.366;2022-08-30T17:12:50;5.28;;;4.10;;
43606;SDS011;29197;44.788;10.366;2022-08-30T17:15:38;6.63;;;3.85;;
43606;SDS011;29197;44.788;10.366;2022-08-30T17:18:32;4.72;;;3.28;;
43606;SDS011;29197;44.788;10.366;2022-08-30T17:21:22;7.35;;;4.13;;
43606;SDS011;29197;44.788;10.366;2022-08-30T17:24:13;4.90;;;3.70;;
43606;SDS011;29197;44.788;10.366;2022-08-30T17:27:04;4.85;;;4.03;;